Time;durP1;ratioP1;P1;durP2;ratioP2;P2;SDS_P1;SDS_P2;PMS_P1;PMS_P2;Temp;Humidity;BMP_temperature;BMP_pressure;BME280_temperature;BME280_humidity;BME280_pressure;Samples;Min_cycle;Max_cycle;Signal;HPM_P1;HPM_P2
2021/03/14 00:00:54;;;;;;;20.05;13.70;;;;;;;3.31;77.39;100092.03;1757889;81;21196;-72
2021/03/14 00:03:25;;;;;;;18.48;13.85;;;;;;;3.31;77.39;100089.39;1748981;81;21187;-71
2021/03/14 00:05:54;;;;;;;17.15;12.85;;;;;;;3.31;77.38;100084.11;1749780;80;21722;-72
2021/03/14 00:08:26;;;;;;;17.25;11.97;;;;;;;3.29;77.33;100084.34;1766176;80;21407;-72
2021/03/14 00:11:00;;;;;;;17.70;12.37;;;;;;;3.27;77.35;100086.39;1750015;81;21217;-71
2021/03/14 00:13:30;;;;;;;17.23;12.93;;;;;;;3.24;77.37;100078.91;1733140;81;21632;-72
2021/03/14 00:15:59;;;;;;;18.75;13.70;;;;;;;3.19;77.46;100077.45;1746755;80;21741;-71
2021/03/14 00:18:31;;;;;;;18.62;13.15;;;;;;;3.15;77.49;100071.50;1772506;80;21160;-72
2021/03/14 00:20:59;;;;;;;19.12;13.58;;;;;;;3.10;77.56;100073.49;1771576;80;21379;-72
2021/03/14 00:23:27;;;;;;;17.37;12.43;;;;;;;3.05;77.59;100079.41;1767874;80;21669;-72
2021/03/14 00:25:56;;;;;;;16.48;11.80;;;;;;;3.01;77.62;100072.96;1769593;79;21183;-72
2021/03/14 00:28:24;;;;;;;20.08;13.13;;;;;;;2.99;77.73;100083.44;1743158;81;21117;-72
2021/03/14 00:30:53;;;;;;;17.23;12.50;;;;;;;2.96;77.79;100075.95;1764635;80;21109;-72
2021/03/14 00:33:20;;;;;;;15.32;12.47;;;;;;;2.93;77.89;100071.95;1733187;81;21378;-71
2021/03/14 00:35:48;;;;;;;16.80;11.63;;;;;;;2.90;77.89;100069.74;1743889;81;21145;-71
2021/03/14 00:38:17;;;;;;;17.00;11.25;;;;;;;2.86;77.98;100069.86;1744065;80;21597;-71
2021/03/14 00:40:45;;;;;;;18.48;12.73;;;;;;;2.82;78.07;100072.64;1751553;81;21906;-72
2021/03/14 00:43:14;;;;;;;17.07;12.93;;;;;;;2.77;78.21;100065.40;1738134;81;21553;-71
2021/03/14 00:45:42;;;;;;;17.37;12.63;;;;;;;2.72;78.35;100066.55;1730958;81;21430;-72
2021/03/14 00:48:14;;;;;;;15.53;12.15;;;;;;;2.67;78.53;100065.09;1736650;80;21217;-72
2021/03/14 00:50:43;;;;;;;17.67;12.78;;;;;;;2.63;78.69;100073.12;1748505;81;21213;-71
2021/03/14 00:53:14;;;;;;;16.65;12.40;;;;;;;2.63;78.82;100074.95;1771332;80;21862;-72
2021/03/14 00:55:45;;;;;;;15.72;12.00;;;;;;;2.62;78.98;100074.66;1753415;81;21184;-72
2021/03/14 00:58:14;;;;;;;17.27;12.28;;;;;;;2.59;79.12;100071.94;1750514;80;21230;-73
2021/03/14 01:00:44;;;;;;;18.57;13.05;;;;;;;2.55;79.25;100070.25;1714258;82;21818;-71
2021/03/14 01:03:13;;;;;;;16.77;12.98;;;;;;;2.52;79.40;100071.20;1747581;81;21211;-70
2021/03/14 01:05:42;;;;;;;18.40;12.28;;;;;;;2.49;79.52;100072.42;1744868;81;21392;-72
2021/03/14 01:08:14;;;;;;;17.98;13.62;;;;;;;2.49;79.60;100067.16;1742245;80;21180;-72
2021/03/14 01:10:44;;;;;;;19.10;14.18;;;;;;;2.46;79.69;100067.59;1710438;81;21394;-72
2021/03/14 01:13:13;;;;;;;21.25;14.03;;;;;;;2.46;79.76;100072.05;1744642;80;21202;-71
2021/03/14 01:15:43;;;;;;;17.42;12.40;;;;;;;2.46;79.77;100072.05;1720618;81;21148;-71
2021/03/14 01:18:11;;;;;;;18.17;12.70;;;;;;;2.44;79.79;100067.02;1766265;79;21117;-73
2021/03/14 01:20:41;;;;;;;19.42;13.22;;;;;;;2.44;79.80;100069.65;1733691;81;21180;-72
2021/03/14 01:23:09;;;;;;;19.12;14.13;;;;;;;2.42;79.85;100062.45;1747953;80;21284;-72
2021/03/14 01:25:37;;;;;;;20.90;14.93;;;;;;;2.40;79.89;100055.27;1751791;81;21260;-72
2021/03/14 01:28:06;;;;;;;18.98;13.38;;;;;;;2.40;79.96;100051.83;1741087;80;21181;-72
2021/03/14 01:30:34;;;;;;;19.12;13.95;;;;;;;2.37;79.93;100053.09;1744039;80;21259;-72
2021/03/14 01:33:02;;;;;;;18.35;13.30;;;;;;;2.35;79.93;100055.92;1741490;81;21624;-73
2021/03/14 01:35:30;;;;;;;18.00;13.43;;;;;;;2.31;80.00;100056.58;1744557;80;22400;-72
2021/03/14 01:37:58;;;;;;;19.73;14.38;;;;;;;2.28;80.13;100053.05;1746155;80;21247;-72
2021/03/14 01:40:26;;;;;;;20.37;13.10;;;;;;;2.26;80.25;100051.93;1740464;81;21175;-72
2021/03/14 01:42:54;;;;;;;19.85;14.25;;;;;;;2.24;80.33;100053.99;1750009;81;21502;-73
2021/03/14 01:45:24;;;;;;;17.23;13.20;;;;;;;2.21;80.53;100046.52;1744977;81;21193;-72
2021/03/14 01:47:53;;;;;;;19.62;13.60;;;;;;;2.20;80.66;100045.39;1762632;80;21961;-72
2021/03/14 01:50:25;;;;;;;20.82;13.70;;;;;;;2.18;80.80;100047.45;1767000;80;21168;-72
2021/03/14 01:52:54;;;;;;;19.25;14.70;;;;;;;2.16;80.91;100041.06;1747738;81;21972;-72
2021/03/14 01:55:23;;;;;;;18.00;12.85;;;;;;;2.14;81.04;100045.77;1771199;80;21191;-72
2021/03/14 01:57:53;;;;;;;20.57;13.30;;;;;;;2.13;81.11;100043.32;1741541;80;21176;-72
2021/03/14 02:00:24;;;;;;;19.02;14.07;;;;;;;2.11;81.15;100041.72;1720712;80;21297;-72
2021/03/14 02:02:52;;;;;;;21.23;15.03;;;;;;;2.11;81.23;100041.72;1737007;81;21197;-74
2021/03/14 02:05:21;;;;;;;22.93;15.23;;;;;;;2.09;81.32;100045.06;1766440;80;21196;-72
2021/03/14 02:07:50;;;;;;;20.40;14.73;;;;;;;2.08;81.37;100044.78;1747370;80;21173;-72
2021/03/14 02:10:25;;;;;;;19.67;14.20;;;;;;;2.06;81.41;100052.08;1752767;80;21171;-72
2021/03/14 02:13:01;;;;;;;19.30;14.68;;;;;;;2.06;81.42;100057.34;1752645;81;21482;-72
2021/03/14 02:15:30;;;;;;;21.05;15.20;;;;;;;2.04;81.44;100054.14;1744947;80;21196;-72
2021/03/14 02:18:00;;;;;;;25.35;15.53;;;;;;;2.02;81.48;100060.63;1733789;81;21163;-72
2021/03/14 02:20:30;;;;;;;22.62;15.08;;;;;;;1.99;81.47;100064.48;1732847;81;21583;-73
2021/03/14 02:23:09;;;;;;;21.65;14.85;;;;;;;1.94;81.53;100064.34;1720817;81;21231;-74
2021/03/14 02:26:04;;;;;;;22.20;15.30;;;;;;;1.90;81.57;100068.39;1740302;81;21378;-74
2021/03/14 02:28:35;;;;;;;22.48;16.40;;;;;;;1.84;81.65;100071.86;1779407;79;21243;-73
2021/03/14 02:31:05;;;;;;;25.27;17.23;;;;;;;1.81;81.91;100068.33;1759662;81;21179;-72
2021/03/14 02:33:36;;;;;;;29.48;18.85;;;;;;;1.77;82.13;100064.00;1755454;81;22264;-72
2021/03/14 02:36:07;;;;;;;27.42;19.85;;;;;;;1.76;82.35;100059.77;1748404;81;21174;-73
2021/03/14 02:38:36;;;;;;;31.80;19.90;;;;;;;1.75;82.55;100057.36;1754116;81;21388;-72
2021/03/14 02:41:06;;;;;;;25.52;18.87;;;;;;;1.76;82.75;100070.30;1753953;80;21218;-72
2021/03/14 02:43:33;;;;;;;25.23;16.95;;;;;;;1.79;82.96;100069.88;1743795;81;21235;-73
2021/03/14 02:46:02;;;;;;;30.72;21.73;;;;;;;1.83;83.17;100071.06;1711082;81;21887;-72
2021/03/14 02:48:30;;;;;;;28.60;20.62;;;;;;;1.89;83.30;100077.31;1760635;81;21198;-74
2021/03/14 02:51:00;;;;;;;30.92;21.05;;;;;;;1.94;83.48;100077.50;1756959;80;22500;-71
2021/03/14 02:53:28;;;;;;;32.53;21.33;;;;;;;2.00;83.61;100075.31;1725032;81;21248;-73
2021/03/14 02:55:56;;;;;;;33.48;23.07;;;;;;;2.06;83.71;100077.10;1722165;82;21196;-73
2021/03/14 02:58:24;;;;;;;31.07;21.57;;;;;;;2.11;83.73;100072.02;1724514;81;21263;-72
2021/03/14 03:00:52;;;;;;;30.90;20.85;;;;;;;2.18;83.78;100083.02;1743491;80;21174;-72
2021/03/14 03:03:23;;;;;;;33.45;22.25;;;;;;;2.24;83.78;100092.72;1755659;81;21817;-72
2021/03/14 03:05:58;;;;;;;33.02;22.75;;;;;;;2.29;83.80;100088.39;1765441;81;21185;-72
2021/03/14 03:08:28;;;;;;;32.42;22.50;;;;;;;2.35;83.79;100080.95;1758060;80;21672;-73
2021/03/14 03:10:59;;;;;;;30.62;20.52;;;;;;;2.41;83.78;100081.13;1734942;80;21200;-72
2021/03/14 03:13:26;;;;;;;27.25;18.62;;;;;;;2.43;83.71;100081.19;1770075;79;21196;-72
2021/03/14 03:15:56;;;;;;;26.65;18.32;;;;;;;2.46;83.66;100078.64;1743887;80;21390;-73
2021/03/14 03:18:24;;;;;;;26.87;19.00;;;;;;;2.48;83.64;100080.05;1702527;81;21219;-73
2021/03/14 03:20:53;;;;;;;26.77;19.52;;;;;;;2.49;83.59;100077.70;1732886;81;21200;-73
2021/03/14 03:23:21;;;;;;;25.95;19.12;;;;;;;2.51;83.56;100076.19;1749388;80;21164;-73
2021/03/14 03:25:50;;;;;;;26.55;19.23;;;;;;;2.52;83.50;100077.27;1741985;81;21191;-73
2021/03/14 03:28:17;;;;;;;27.13;19.20;;;;;;;2.54;83.43;100073.92;1751996;81;22862;-73
2021/03/14 03:30:45;;;;;;;24.37;17.77;;;;;;;2.55;83.39;100076.84;1744631;80;21716;-73
2021/03/14 03:33:13;;;;;;;24.90;18.10;;;;;;;2.58;83.37;100076.93;1753886;81;21180;-73
2021/03/14 03:35:42;;;;;;;27.00;19.32;;;;;;;2.59;83.30;100085.92;1745935;81;21171;-72
2021/03/14 03:38:10;;;;;;;24.15;16.95;;;;;;;2.61;83.24;100087.56;1750148;80;21221;-71
2021/03/14 03:40:38;;;;;;;28.07;20.08;;;;;;;2.63;83.19;100092.09;1716064;81;21410;-72
2021/03/14 03:43:27;;;;;;;26.02;18.80;;;;;;;2.64;83.16;100081.86;1767461;79;21140;-72
2021/03/14 03:45:58;;;;;;;26.05;18.57;;;;;;;2.67;83.11;100086.70;1727294;81;21196;-72
2021/03/14 03:48:44;;;;;;;26.17;18.92;;;;;;;2.68;83.01;100076.44;1750618;80;21620;-72
2021/03/14 03:51:12;;;;;;;25.48;17.90;;;;;;;2.66;82.91;100067.41;1732332;80;21191;-71
2021/03/14 03:53:40;;;;;;;27.80;18.62;;;;;;;2.66;82.84;100061.34;1749500;81;21221;-72
2021/03/14 03:56:09;;;;;;;27.35;18.70;;;;;;;2.68;82.83;100064.58;1750906;80;21154;-73
2021/03/14 03:58:38;;;;;;;26.25;19.12;;;;;;;2.69;82.79;100062.22;1731915;81;21636;-72
2021/03/14 04:01:06;;;;;;;25.65;18.05;;;;;;;2.68;82.70;100058.78;1721799;80;21195;-72
2021/03/14 04:03:37;;;;;;;24.80;16.48;;;;;;;2.69;82.65;100057.75;1731230;79;21145;-72
2021/03/14 04:06:05;;;;;;;20.60;14.53;;;;;;;2.72;82.59;100063.11;1763966;80;21299;-73
2021/03/14 04:08:34;;;;;;;23.60;16.82;;;;;;;2.71;82.52;100060.98;1767818;80;21227;-74
2021/03/14 04:11:08;;;;;;;23.52;16.48;;;;;;;2.69;82.47;100056.44;1765400;79;21779;-73
2021/03/14 04:13:36;;;;;;;22.42;15.72;;;;;;;2.68;82.41;100052.70;1742205;81;21607;-72
2021/03/14 04:16:05;;;;;;;23.65;16.27;;;;;;;2.65;82.35;100056.58;1718376;82;21187;-73
2021/03/14 04:18:33;;;;;;;22.37;15.55;;;;;;;2.65;82.33;100054.45;1731854;80;21814;-73
2021/03/14 04:21:05;;;;;;;22.22;15.10;;;;;;;2.65;82.30;100047.87;1738411;81;21207;-73
2021/03/14 04:23:33;;;;;;;19.37;14.53;;;;;;;2.65;82.29;100053.14;1718056;81;21560;-73
2021/03/14 04:26:01;;;;;;;19.37;14.28;;;;;;;2.66;82.23;100053.42;1743140;81;21157;-72
2021/03/14 04:28:31;;;;;;;21.80;15.28;;;;;;;2.64;82.14;100052.34;1742657;81;21504;-72
2021/03/14 04:30:59;;;;;;;20.75;14.60;;;;;;;2.62;82.12;100050.42;1775958;79;22885;-73
2021/03/14 04:33:29;;;;;;;18.65;14.05;;;;;;;2.61;82.12;100045.38;1754052;80;21156;-72
2021/03/14 04:36:06;;;;;;;21.33;15.27;;;;;;;2.65;82.11;100033.36;1824357;77;22335;-73
2021/03/14 04:38:33;;;;;;;21.20;15.18;;;;;;;2.59;82.06;100034.52;1798783;79;21150;-73
2021/03/14 04:41:02;;;;;;;20.17;13.65;;;;;;;2.59;82.03;100021.84;1792756;78;21136;-72
2021/03/14 04:43:30;;;;;;;18.80;14.00;;;;;;;2.57;81.99;100019.44;1796086;77;21130;-73
2021/03/14 04:45:58;;;;;;;19.32;14.03;;;;;;;2.57;82.00;100013.37;1796585;79;21131;-73
2021/03/14 04:48:26;;;;;;;17.57;13.13;;;;;;;2.55;82.03;100013.57;1786567;79;21138;-72
2021/03/14 04:50:54;;;;;;;18.92;13.83;;;;;;;2.56;82.00;100021.77;1791121;79;21072;-73
2021/03/14 04:53:24;;;;;;;16.85;12.63;;;;;;;2.55;81.97;100010.13;1793706;79;21795;-73
2021/03/14 04:55:52;;;;;;;18.37;12.93;;;;;;;2.57;81.97;100005.45;1803413;79;21163;-72
2021/03/14 04:58:22;;;;;;;18.80;14.10;;;;;;;2.57;81.99;100012.85;1794228;79;21621;-73
2021/03/14 05:00:50;;;;;;;21.77;14.53;;;;;;;2.56;82.00;100006.46;1787874;79;21613;-73
2021/03/14 05:03:22;;;;;;;18.00;13.55;;;;;;;2.56;82.02;100007.27;1793668;77;21100;-73
2021/03/14 05:05:51;;;;;;;15.98;11.65;;;;;;;2.59;81.99;100016.06;1810064;79;21186;-73
2021/03/14 05:08:23;;;;;;;18.52;13.13;;;;;;;2.61;81.99;100009.78;1793222;79;21191;-73
2021/03/14 05:10:51;;;;;;;16.77;12.93;;;;;;;2.65;82.02;100013.59;1799073;79;21127;-73
2021/03/14 05:13:21;;;;;;;16.20;12.35;;;;;;;2.69;82.01;100012.92;1801830;77;21461;-74
2021/03/14 05:15:51;;;;;;;16.55;12.73;;;;;;;2.72;81.93;100019.08;1790124;79;21598;-73
2021/03/14 05:18:19;;;;;;;14.73;10.95;;;;;;;2.73;81.85;100027.80;1802261;79;22309;-73
2021/03/14 05:20:47;;;;;;;14.33;11.08;;;;;;;2.74;81.81;100030.75;1806310;79;21113;-74
2021/03/14 05:23:15;;;;;;;16.07;11.50;;;;;;;2.77;81.81;100033.75;1798013;79;21190;-73
2021/03/14 05:25:44;;;;;;;17.00;12.15;;;;;;;2.84;81.78;100031.56;1796690;79;21159;-73
2021/03/14 05:28:14;;;;;;;14.85;11.40;;;;;;;2.90;81.65;100047.84;1789248;79;21626;-73
2021/03/14 05:30:42;;;;;;;15.10;11.20;;;;;;;2.95;81.55;100044.02;1798498;79;21210;-73
2021/03/14 05:33:12;;;;;;;15.28;10.88;;;;;;;3.02;81.45;100040.27;1791753;79;21589;-73
2021/03/14 05:35:40;;;;;;;13.55;10.30;;;;;;;3.08;81.28;100041.23;1799785;77;21150;-73
2021/03/14 05:38:08;;;;;;;13.60;10.20;;;;;;;3.10;81.13;100041.03;1795536;77;21598;-73
2021/03/14 05:40:35;;;;;;;15.65;11.25;;;;;;;3.14;81.04;100040.87;1796909;79;21127;-73
2021/03/14 05:43:04;;;;;;;14.75;10.88;;;;;;;3.19;80.90;100046.28;1804397;79;21385;-73
2021/03/14 05:45:32;;;;;;;14.87;10.60;;;;;;;3.24;80.77;100035.36;1791352;77;21152;-73
2021/03/14 05:48:01;;;;;;;13.60;10.08;;;;;;;3.28;80.64;100038.36;1793356;79;21559;-74
2021/03/14 05:50:29;;;;;;;14.07;10.78;;;;;;;3.34;80.50;100041.44;1791266;79;21138;-74
2021/03/14 05:52:59;;;;;;;13.25;9.60;;;;;;;3.39;80.40;100045.55;1792604;78;21218;-73
2021/03/14 05:55:27;;;;;;;12.70;9.88;;;;;;;3.45;80.23;100047.28;1767396;79;22240;-73
2021/03/14 05:57:55;;;;;;;13.03;9.43;;;;;;;3.50;80.05;100045.31;1789388;79;21627;-73
2021/03/14 06:00:27;;;;;;;13.55;9.78;;;;;;;3.55;79.89;100032.74;1796243;79;21158;-73
2021/03/14 06:03:00;;;;;;;12.43;9.13;;;;;;;3.60;79.61;100038.98;1802442;79;21230;-73
2021/03/14 06:05:30;;;;;;;13.90;10.70;;;;;;;3.62;79.34;100037.42;1798369;79;21248;-73
2021/03/14 06:07:59;;;;;;;15.20;10.60;;;;;;;3.65;79.24;100036.48;1806593;79;22732;-72
2021/03/14 06:10:28;;;;;;;13.60;10.43;;;;;;;3.73;79.13;100034.03;1800525;78;21194;-72
2021/03/14 06:12:58;;;;;;;13.20;9.80;;;;;;;3.82;78.95;100039.78;1772657;79;21563;-72
2021/03/14 06:15:27;;;;;;;12.55;9.28;;;;;;;3.92;78.73;100050.13;1795442;79;21056;-72
2021/03/14 06:17:56;;;;;;;11.93;9.05;;;;;;;3.98;78.40;100049.71;1793741;79;21559;-72
2021/03/14 06:20:41;;;;;;;11.95;9.13;;;;;;;4.04;78.18;100048.02;1790873;79;21098;-72
2021/03/14 06:23:12;;;;;;;11.30;8.43;;;;;;;4.09;77.96;100048.95;1792526;79;21598;-72
2021/03/14 06:25:44;;;;;;;11.57;8.78;;;;;;;4.16;77.75;100048.85;1803003;77;21823;-72
2021/03/14 06:28:13;;;;;;;12.07;9.25;;;;;;;4.23;77.46;100042.94;1805550;79;21547;-72
2021/03/14 06:30:42;;;;;;;12.50;9.45;;;;;;;4.28;77.27;100039.61;1790661;79;21542;-73
2021/03/14 06:33:15;;;;;;;11.78;8.13;;;;;;;4.35;77.11;100041.13;1787058;79;21341;-73
2021/03/14 06:35:52;;;;;;;12.15;8.93;;;;;;;4.42;76.65;100040.50;1801899;79;21139;-73
2021/03/14 06:38:34;;;;;;;11.08;8.80;;;;;;;4.45;76.45;100042.69;1802841;77;21155;-74
2021/03/14 06:41:15;;;;;;;11.30;9.13;;;;;;;4.50;76.22;100043.83;1800547;79;21614;-74
2021/03/14 06:43:51;;;;;;;11.60;8.28;;;;;;;4.56;76.01;100041.59;1812085;79;21194;-74
2021/03/14 06:46:31;;;;;;;11.53;8.75;;;;;;;4.61;75.76;100035.11;1795617;79;22647;-73
2021/03/14 06:49:10;;;;;;;9.98;7.42;;;;;;;4.65;75.46;100037.58;1792895;77;21488;-73
2021/03/14 06:51:46;;;;;;;11.05;8.48;;;;;;;4.72;75.17;100030.33;1803518;79;21593;-73
2021/03/14 06:54:36;;;;;;;10.63;8.28;;;;;;;4.74;74.90;100036.70;1806933;79;21139;-74
2021/03/14 06:57:13;;;;;;;10.13;7.75;;;;;;;4.77;74.71;100023.83;1794269;79;21563;-73
2021/03/14 06:59:47;;;;;;;9.85;7.40;;;;;;;4.83;74.51;100034.79;1790689;79;21305;-72
2021/03/14 07:02:18;;;;;;;9.53;7.30;;;;;;;4.86;74.25;100031.69;1789860;79;21223;-74
2021/03/14 07:04:49;;;;;;;9.45;7.05;;;;;;;4.92;74.11;100029.95;1795441;79;21218;-74
2021/03/14 07:07:28;;;;;;;8.93;7.00;;;;;;;4.99;73.93;100028.52;1801447;79;21130;-73
2021/03/14 07:10:20;;;;;;;9.78;7.50;;;;;;;5.05;73.74;100040.30;1796551;79;21159;-73
2021/03/14 07:12:48;;;;;;;9.18;7.28;;;;;;;5.14;73.60;100044.72;1823724;77;21216;-74
2021/03/14 07:15:22;;;;;;;9.53;7.60;;;;;;;5.22;73.17;100041.70;1821396;78;21234;-74
2021/03/14 07:17:56;;;;;;;8.38;6.20;;;;;;;5.23;72.82;100039.35;1821920;78;21320;-73
2021/03/14 07:20:28;;;;;;;9.23;6.80;;;;;;;5.29;72.69;100033.09;1823812;78;21500;-73
2021/03/14 07:23:05;;;;;;;9.78;7.35;;;;;;;5.32;72.41;100027.33;1798452;78;21147;-74
2021/03/14 07:25:38;;;;;;;9.10;7.12;;;;;;;5.37;72.29;100032.73;1819327;78;21215;-74
2021/03/14 07:28:06;;;;;;;9.08;7.17;;;;;;;5.43;71.95;100038.95;1814194;78;21147;-73
2021/03/14 07:30:34;;;;;;;8.55;6.60;;;;;;;5.47;71.89;100045.38;1768914;79;21199;-74
2021/03/14 07:33:02;;;;;;;7.60;5.92;;;;;;;5.54;71.69;100042.06;1823747;78;21190;-74
2021/03/14 07:35:30;;;;;;;8.43;6.53;;;;;;;5.62;71.54;100040.34;1818895;78;21175;-72
2021/03/14 07:37:58;;;;;;;7.85;6.12;;;;;;;5.68;71.14;100051.05;1822206;78;22085;-73
2021/03/14 07:40:29;;;;;;;8.48;6.17;;;;;;;5.74;71.04;100042.16;1800217;78;21175;-73
2021/03/14 07:42:57;;;;;;;7.12;5.20;;;;;;;5.75;70.68;100039.26;1818443;78;21151;-73
2021/03/14 07:45:25;;;;;;;8.28;6.85;;;;;;;5.73;70.29;100048.52;1796985;78;21210;-73
2021/03/14 07:47:54;;;;;;;9.15;6.47;;;;;;;5.68;70.34;100055.83;1820705;78;22502;-72
2021/03/14 07:50:29;;;;;;;7.75;5.65;;;;;;;5.69;70.36;100056.63;1823642;77;21880;-72
2021/03/14 07:53:09;;;;;;;9.48;6.45;;;;;;;5.73;70.38;100063.09;1823964;78;21239;-73
2021/03/14 07:55:37;;;;;;;8.53;6.42;;;;;;;5.76;70.18;100055.95;1821181;78;22169;-72
2021/03/14 07:58:05;;;;;;;8.08;6.37;;;;;;;5.76;70.07;100074.02;1813117;78;21162;-73
2021/03/14 08:00:34;;;;;;;8.18;6.60;;;;;;;5.75;69.73;100071.06;1798951;78;21171;-72
2021/03/14 08:03:06;;;;;;;7.60;6.00;;;;;;;5.71;69.79;100074.43;1795921;78;21364;-74
2021/03/14 08:05:44;;;;;;;10.20;7.03;;;;;;;5.73;69.86;100061.77;1822869;77;21702;-73
2021/03/14 08:08:29;;;;;;;9.03;6.62;;;;;;;5.74;69.79;100063.36;1777852;79;21721;-71
2021/03/14 08:10:59;;;;;;;7.95;6.37;;;;;;;5.76;69.85;100044.86;1824239;78;21164;-73
2021/03/14 08:13:36;;;;;;;9.75;6.92;;;;;;;5.81;69.81;100035.66;1823525;78;21125;-73
2021/03/14 08:16:06;;;;;;;8.33;6.50;;;;;;;5.95;69.84;100044.14;1824251;77;21195;-73
2021/03/14 08:18:46;;;;;;;8.80;6.97;;;;;;;6.10;69.66;100039.64;1772554;79;21619;-73
2021/03/14 08:21:28;;;;;;;8.85;6.47;;;;;;;6.25;69.57;100045.20;1821733;78;21207;-72
2021/03/14 08:23:59;;;;;;;10.13;7.10;;;;;;;6.43;69.22;100038.84;1822113;78;21179;-73
2021/03/14 08:26:36;;;;;;;7.95;6.28;;;;;;;6.53;68.56;100038.20;1797699;79;21420;-73
2021/03/14 08:29:12;;;;;;;9.35;7.03;;;;;;;6.58;68.13;100033.77;1823026;77;22428;-74
2021/03/14 08:31:53;;;;;;;9.80;6.87;;;;;;;6.64;67.91;100029.32;1825911;78;21623;-73
2021/03/14 08:34:32;;;;;;;8.88;6.95;;;;;;;6.70;67.68;100038.17;1817333;78;21226;-74
2021/03/14 08:37:04;;;;;;;9.20;6.55;;;;;;;6.77;67.47;100034.28;1821273;78;21148;-73
2021/03/14 08:39:44;;;;;;;8.63;6.83;;;;;;;6.91;67.27;100038.75;1835259;75;22660;-73
2021/03/14 08:42:22;;;;;;;9.30;6.77;;;;;;;7.01;67.12;100035.42;1797474;78;22757;-72
2021/03/14 08:44:51;;;;;;;8.25;6.65;;;;;;;7.07;66.72;100034.41;1767443;78;21132;-72
2021/03/14 08:47:31;;;;;;;8.47;6.60;;;;;;;7.17;66.28;100031.91;1825789;77;22767;-72
2021/03/14 08:50:02;;;;;;;7.28;5.70;;;;;;;7.11;66.04;100034.22;1784464;79;21143;-73
2021/03/14 08:52:32;;;;;;;8.55;6.80;;;;;;;7.09;65.75;100045.61;1789655;79;22456;-73
2021/03/14 08:55:06;;;;;;;6.70;5.53;;;;;;;6.99;65.67;100040.96;1789320;78;21545;-72
2021/03/14 08:57:35;;;;;;;7.87;6.15;;;;;;;6.98;65.86;100043.87;1763666;79;21179;-73
2021/03/14 09:00:06;;;;;;;8.35;6.50;;;;;;;7.00;65.71;100044.41;1802254;79;21167;-74
2021/03/14 09:02:36;;;;;;;8.15;6.72;;;;;;;6.99;65.48;100054.23;1805840;79;21649;-75
2021/03/14 09:05:15;;;;;;;7.67;6.03;;;;;;;6.94;65.46;100056.02;1797620;79;21677;-74
2021/03/14 09:08:00;;;;;;;8.40;6.43;;;;;;;6.97;65.59;100051.55;1839708;75;22832;-73
2021/03/14 09:10:35;;;;;;;9.05;7.37;;;;;;;6.94;65.56;100050.70;1838719;77;21099;-72
2021/03/14 09:13:12;;;;;;;8.77;6.87;;;;;;;7.04;65.56;100048.18;1802836;79;22740;-75
2021/03/14 09:15:49;;;;;;;9.23;7.25;;;;;;;7.10;65.46;100050.39;1762337;79;21176;-73
2021/03/14 09:18:33;;;;;;;9.57;7.17;;;;;;;7.24;65.30;100033.85;1796233;79;22707;-75
2021/03/14 09:21:03;;;;;;;8.83;7.17;;;;;;;7.33;65.11;100033.41;1813340;78;21148;-74
2021/03/14 09:23:42;;;;;;;8.13;6.35;;;;;;;7.42;64.75;100022.63;1775190;78;21368;-74
2021/03/14 09:26:13;;;;;;;9.73;7.72;;;;;;;7.48;64.48;100025.08;1805590;78;21136;-74
2021/03/14 09:28:44;;;;;;;8.78;6.90;;;;;;;7.58;64.53;100025.72;1811254;78;21196;-74
2021/03/14 09:31:13;;;;;;;9.35;7.05;;;;;;;7.74;64.24;100018.71;1804370;78;21109;-74
2021/03/14 09:33:43;;;;;;;10.78;8.00;;;;;;;7.90;64.10;100011.16;1806369;78;21123;-74
2021/03/14 09:36:50;;;;;;;10.17;8.47;;;;;;;8.21;63.31;100000.76;1820006;77;22937;-74
2021/03/14 09:39:24;;;;;;;12.70;9.70;;;;;;;8.32;62.61;100005.61;1809257;78;21183;-73
2021/03/14 09:42:45;;;;;;;11.97;8.47;;;;;;;8.52;62.07;100000.45;1860007;75;23401;-73
2021/03/14 09:45:20;;;;;;;;;;;;;;;8.57;61.77;100006.36;1832932;76;21574;-73
2021/03/14 09:48:12;;;;;;;11.53;9.28;;;;;;;8.66;61.51;100000.83;1814379;77;21040;-75
2021/03/14 09:50:53;;;;;;;12.37;9.33;;;;;;;8.79;60.93;100002.23;1897892;74;22495;-73
2021/03/14 09:53:33;;;;;;;12.55;10.23;;;;;;;8.81;60.80;100010.75;1866836;75;21668;-73
2021/03/14 09:56:08;;;;;;;12.88;9.40;;;;;;;8.91;60.37;100001.48;1882641;74;21187;-73
2021/03/14 09:58:58;;;;;;;11.25;8.85;;;;;;;8.93;60.10;100009.48;1836230;76;21167;-73
2021/03/14 10:01:31;;;;;;;11.70;9.03;;;;;;;8.88;59.52;100004.16;1809288;77;21108;-73
2021/03/14 10:03:59;;;;;;;12.73;9.68;;;;;;;8.64;59.22;100010.39;1840546;77;21096;-73
2021/03/14 10:06:38;;;;;;;10.18;7.78;;;;;;;8.38;59.56;100008.62;1816152;77;21151;-74
2021/03/14 10:09:20;;;;;;;13.28;9.63;;;;;;;8.21;60.17;100008.20;1834129;76;21355;-74
2021/03/14 10:11:53;;;;;;;11.45;8.98;;;;;;;8.09;60.39;100003.58;1836161;77;21112;-73
2021/03/14 10:14:22;;;;;;;13.13;9.55;;;;;;;7.99;60.70;100006.98;1810589;76;21345;-74
2021/03/14 10:16:50;;;;;;;11.57;8.55;;;;;;;7.95;61.05;99997.88;1802454;77;21635;-74
2021/03/14 10:19:19;;;;;;;11.60;8.78;;;;;;;8.00;61.29;99995.81;1806174;77;21109;-74
2021/03/14 10:21:47;;;;;;;12.37;9.80;;;;;;;8.07;61.31;99997.73;1810194;77;21830;-74
2021/03/14 10:24:22;;;;;;;12.47;9.38;;;;;;;8.11;61.35;99998.81;1795198;78;21187;-73
2021/03/14 10:27:00;;;;;;;13.25;9.83;;;;;;;8.18;61.23;99984.77;1823634;76;21132;-73
2021/03/14 10:29:34;;;;;;;11.35;8.58;;;;;;;8.21;61.08;99980.27;1810190;77;21184;-74
2021/03/14 10:32:22;;;;;;;12.40;9.47;;;;;;;8.31;60.90;99975.55;1803564;77;22892;-74
2021/03/14 10:34:58;;;;;;;12.68;9.20;;;;;;;8.26;60.70;99980.85;1771030;80;21200;-74
2021/03/14 10:37:33;;;;;;;11.80;9.28;;;;;;;8.28;60.52;99983.24;1749255;80;22311;-73
2021/03/14 10:40:11;;;;;;;11.10;8.68;;;;;;;8.26;60.54;99986.68;1768605;80;21217;-72
2021/03/14 10:42:44;;;;;;;12.45;9.60;;;;;;;8.29;60.54;99983.51;1765803;80;21180;-74
2021/03/14 10:45:17;;;;;;;11.55;8.75;;;;;;;8.32;60.51;99977.67;1797168;79;21310;-74
2021/03/14 10:48:01;;;;;;;12.28;9.18;;;;;;;8.32;60.35;99976.34;1771449;80;21957;-72
2021/03/14 10:50:33;;;;;;;12.40;9.48;;;;;;;8.25;60.41;99971.78;1766068;80;22308;-72
2021/03/14 10:53:16;;;;;;;12.23;8.90;;;;;;;8.16;60.59;99972.27;1754274;80;21200;-75
2021/03/14 10:55:48;;;;;;;13.62;10.38;;;;;;;8.15;60.91;99957.88;1768174;79;21215;-74
2021/03/14 10:58:18;;;;;;;13.70;9.95;;;;;;;8.11;61.17;99954.13;1769215;80;21161;-73
2021/03/14 11:00:54;;;;;;;12.20;9.23;;;;;;;8.09;61.22;99945.06;1773690;79;21540;-81
2021/03/14 11:03:30;;;;;;;12.03;9.63;;;;;;;8.08;61.02;99945.33;1767672;80;21643;-75
2021/03/14 11:06:18;;;;;;;13.30;9.35;;;;;;;8.01;61.00;99950.07;1744741;79;21147;-74
2021/03/14 11:09:04;;;;;;;12.15;9.23;;;;;;;7.96;61.16;99954.80;1767702;80;21206;-73
2021/03/14 11:11:41;;;;;;;13.85;9.90;;;;;;;7.96;61.39;99962.78;1793846;79;21200;-75
2021/03/14 11:14:44;;;;;;;11.93;9.18;;;;;;;8.03;61.50;99955.41;1757103;80;21188;-74
2021/03/14 11:17:16;;;;;;;15.40;11.00;;;;;;;8.02;61.30;99951.13;1790291;78;21646;-74
2021/03/14 11:20:08;;;;;;;15.40;10.57;;;;;;;8.05;61.55;99949.83;1744287;79;22816;-72
2021/03/14 11:22:37;;;;;;;12.88;10.25;;;;;;;7.99;61.65;99946.32;1707609;81;21756;-73
2021/03/14 11:25:09;;;;;;;13.35;10.38;;;;;;;7.94;61.73;99945.77;1684249;81;22908;-74
2021/03/14 11:27:36;;;;;;;15.00;11.33;;;;;;;7.90;61.86;99934.57;1685367;81;21210;-72
2021/03/14 11:30:06;;;;;;;15.88;11.35;;;;;;;7.88;61.95;99924.70;1707824;82;21201;-72
2021/03/14 11:32:35;;;;;;;15.95;12.10;;;;;;;7.84;62.05;99925.75;1700960;82;21191;-79
2021/03/14 11:35:14;;;;;;;16.47;11.27;;;;;;;7.88;62.25;99923.38;1864151;74;23323;-75
2021/03/14 11:37:53;;;;;;;16.02;12.78;;;;;;;7.79;62.38;99924.89;1813468;77;21135;-74
2021/03/14 11:40:37;;;;;;;15.63;10.70;;;;;;;7.79;62.47;99915.59;1822055;77;23227;-74
2021/03/14 11:43:11;;;;;;;15.93;11.40;;;;;;;7.72;62.68;99909.95;1736371;79;21158;-74
2021/03/14 11:45:41;;;;;;;15.60;12.20;;;;;;;7.74;62.86;99895.09;1785826;79;21203;-76
2021/03/14 11:48:11;;;;;;;15.55;11.78;;;;;;;7.72;62.87;99895.33;1777981;79;21226;-74